createdAt,value
2022-10-14T00:02:32.566Z,22.6
2022-10-14T00:07:33.067Z,22.7
2022-10-14T00:12:33.419Z,23.1
2022-10-14T00:17:33.739Z,22.2
2022-10-14T00:22:34.262Z,22.4
2022-10-14T00:27:34.644Z,21.7
2022-10-14T00:32:35.024Z,22.6
2022-10-14T00:37:35.608Z,21.9
2022-10-14T00:42:35.980Z,22.1
2022-10-14T00:47:36.307Z,22.6
2022-10-14T00:52:36.946Z,21.7
2022-10-14T00:57:37.483Z,22.7
2022-10-14T01:02:37.858Z,22.2
2022-10-14T01:07:38.343Z,22.1
2022-10-14T01:12:38.732Z,22.5
2022-10-14T01:17:39.037Z,22.4
2022-10-14T01:22:39.736Z,22.1
2022-10-14T01:27:40.165Z,22.3
2022-10-14T01:32:40.524Z,22.3
2022-10-14T01:37:41.157Z,23.3
2022-10-14T01:42:41.497Z,23.4
2022-10-14T01:47:41.911Z,26.5
2022-10-14T01:52:42.460Z,28.6
2022-10-14T01:57:42.913Z,26.2
2022-10-14T02:02:43.250Z,27.7
2022-10-14T02:07:43.903Z,28
2022-10-14T02:12:44.294Z,26.3
2022-10-14T02:17:44.638Z,26.9
2022-10-14T02:22:45.319Z,27.8
2022-10-14T02:27:45.711Z,28.5
2022-10-14T02:32:46.119Z,28.8
2022-10-14T02:37:46.551Z,27.1
2022-10-14T02:42:46.937Z,27.4
2022-10-14T02:47:47.235Z,29.6
2022-10-14T02:52:47.771Z,30
2022-10-14T02:57:48.315Z,31
2022-10-14T03:02:48.676Z,30.7
2022-10-14T03:07:49.093Z,31.5
2022-10-14T03:12:49.631Z,33.4
2022-10-14T03:17:50.052Z,32.1
2022-10-14T03:22:50.522Z,31.3
2022-10-14T03:27:50.900Z,31.9
2022-10-14T03:32:51.251Z,31.6
2022-10-14T03:37:51.802Z,30.7
2022-10-14T03:42:52.225Z,32.5
2022-10-14T03:47:52.579Z,30.5
2022-10-14T03:52:56.508Z,30
2022-10-14T03:57:57.036Z,29.3
2022-10-14T04:02:57.614Z,62.4
2022-10-14T04:07:58.038Z,33.3
2022-10-14T04:12:58.504Z,30.7
2022-10-14T04:17:58.845Z,31.9
2022-10-14T04:22:59.232Z,32.2
2022-10-14T04:27:59.525Z,31
2022-10-14T04:32:59.881Z,29.9
2022-10-14T04:38:00.385Z,29.7
2022-10-14T04:43:00.727Z,30.6
2022-10-14T04:48:01.404Z,32
2022-10-14T04:53:01.818Z,31.8
2022-10-14T04:58:02.452Z,33.4
2022-10-14T05:03:03.410Z,54.1
2022-10-14T05:13:04.715Z,34.7
2022-10-14T05:18:05.057Z,32.9
2022-10-14T05:23:05.516Z,33.1
2022-10-14T05:28:05.855Z,32.7
2022-10-14T05:33:06.450Z,32
2022-10-14T05:38:06.817Z,45.2
2022-10-14T05:43:07.170Z,31.8
2022-10-14T05:48:07.499Z,31.6
2022-10-14T05:53:08.259Z,32.3
2022-10-14T05:58:11.011Z,32.1
2022-10-14T06:03:11.474Z,31
2022-10-14T06:08:11.892Z,30.6
2022-10-14T06:13:12.347Z,31.4
2022-10-14T06:18:12.661Z,28.7
2022-10-14T06:23:13.067Z,25.6
2022-10-14T06:28:13.435Z,26.7
2022-10-14T06:33:13.769Z,26.1
2022-10-14T06:38:14.169Z,23.4
2022-10-14T06:43:14.716Z,45.7
2022-10-14T06:48:15.081Z,18.7
2022-10-14T06:53:17.364Z,29
2022-10-14T06:58:17.879Z,18.4
2022-10-14T07:03:18.559Z,18.6
2022-10-14T07:08:19.589Z,12
2022-10-14T07:13:21.757Z,13.5
2022-10-14T07:18:23.826Z,12.6
2022-10-14T07:23:26.585Z,12.7
2022-10-14T07:28:28.834Z,12.4
2022-10-14T07:33:31.928Z,12.6
2022-10-14T07:38:34.365Z,13.1
2022-10-14T07:43:37.333Z,11.8
2022-10-14T07:48:57.668Z,10.9
2022-10-14T07:53:40.508Z,11.1
2022-10-14T07:58:50.411Z,10.9
2022-10-14T08:03:43.629Z,10.7
2022-10-14T08:08:45.475Z,11.3
2022-10-14T08:13:47.491Z,12.1
2022-10-14T08:18:49.506Z,12.3
2022-10-14T08:23:51.546Z,11
2022-10-14T08:28:53.626Z,10.4
2022-10-14T08:33:57.894Z,10.2
2022-10-14T08:39:00.095Z,10.5
2022-10-14T08:44:02.383Z,16.6
2022-10-14T08:49:02.726Z,10.1
2022-10-14T08:54:04.744Z,8.8
2022-10-14T08:59:06.805Z,8.2
2022-10-14T09:04:09.220Z,8.6
2022-10-14T09:09:11.317Z,7.7
2022-10-14T09:14:13.644Z,7.1
2022-10-14T09:19:15.571Z,7.3
2022-10-14T09:24:17.694Z,7
2022-10-14T09:29:19.757Z,6.6
2022-10-14T09:34:21.728Z,6.8
2022-10-14T09:39:23.976Z,6.7
2022-10-14T09:44:24.632Z,7.1
2022-10-14T09:49:26.912Z,6.4
2022-10-14T09:54:28.937Z,6.7
2022-10-14T09:59:31.518Z,7.5
2022-10-14T10:04:33.478Z,7.7
2022-10-14T10:09:35.559Z,6.5
2022-10-14T10:14:37.722Z,7.3
2022-10-14T10:19:39.858Z,6.8
2022-10-14T10:24:41.886Z,6.1
2022-10-14T10:29:44.085Z,6.4
2022-10-14T10:34:46.103Z,6.3
2022-10-14T10:39:48.077Z,7
2022-10-14T10:44:50.480Z,6.3
2022-10-14T10:49:52.919Z,6.7
2022-10-14T10:54:55.605Z,6.6
2022-10-14T10:59:57.972Z,7.1
2022-10-14T11:05:01.523Z,6.3
2022-10-14T11:10:04.062Z,7.1
2022-10-14T11:15:06.634Z,6.3
2022-10-14T11:20:09.195Z,7
2022-10-14T11:25:11.576Z,6.8
2022-10-14T11:30:13.718Z,6.1
2022-10-14T11:35:16.050Z,6.2
2022-10-14T11:40:18.029Z,6.5
2022-10-14T11:45:22.370Z,6.6
2022-10-14T11:50:24.493Z,6.9
2022-10-14T11:55:26.400Z,6.2
2022-10-14T12:00:28.509Z,6.1
2022-10-14T12:05:30.489Z,7.1
2022-10-14T12:10:32.668Z,6.5
2022-10-14T12:15:34.658Z,6.6
2022-10-14T12:20:36.632Z,6.8
2022-10-14T12:25:38.683Z,6.2
2022-10-14T12:30:40.612Z,6.6
2022-10-14T12:35:42.575Z,6.6
2022-10-14T12:40:44.558Z,6.3
2022-10-14T12:45:46.547Z,6.1
2022-10-14T12:50:48.574Z,5.9
2022-10-14T12:55:53.605Z,5.2
2022-10-14T13:00:55.777Z,5.1
2022-10-14T13:05:58.166Z,5
2022-10-14T13:11:00.454Z,5
2022-10-14T13:16:02.381Z,5.1
2022-10-14T13:21:04.437Z,4.6
2022-10-14T13:26:06.383Z,4.9
2022-10-14T13:31:08.694Z,4.9
2022-10-14T13:36:11.580Z,4.5
2022-10-14T13:41:13.907Z,4.5
2022-10-14T13:46:16.091Z,4.8
2022-10-14T13:51:35.821Z,4.7
2022-10-14T13:56:19.084Z,4.8
2022-10-14T14:01:21.534Z,4.9
2022-10-14T14:06:23.777Z,4.9
2022-10-14T14:11:25.671Z,4.8
2022-10-14T14:16:27.989Z,4.6
2022-10-14T14:21:30.016Z,4.8
2022-10-14T14:26:32.342Z,4.6
2022-10-14T14:32:07.406Z,5
2022-10-14T14:36:55.358Z,5.1
2022-10-14T14:41:42.600Z,4.9
2022-10-14T14:46:44.707Z,4.8
2022-10-14T14:52:17.741Z,8
2022-10-14T14:57:18.350Z,5
2022-10-14T15:02:22.422Z,5.2
2022-10-14T15:07:25.954Z,5.4
2022-10-14T15:12:27.996Z,5.3
2022-10-14T15:17:29.952Z,5.6
2022-10-14T15:22:33.138Z,6.1
2022-10-14T15:27:36.670Z,6.5
2022-10-14T15:32:43.203Z,6.6
2022-10-14T15:37:45.362Z,6.8
2022-10-14T15:42:47.279Z,6.4
2022-10-14T15:47:49.460Z,6.1
2022-10-14T15:52:51.421Z,6.9
2022-10-14T15:57:53.519Z,7.5
2022-10-14T16:02:55.763Z,7.1
2022-10-14T16:07:57.661Z,6.7
2022-10-14T16:12:59.838Z,6.8
2022-10-14T16:18:02.180Z,7.4
2022-10-14T16:23:04.401Z,6.8
2022-10-14T16:28:11.037Z,7
2022-10-14T16:33:13.239Z,8.2
2022-10-14T16:38:15.203Z,9.2
2022-10-14T16:43:17.291Z,10.4
2022-10-14T16:48:19.233Z,11.1
2022-10-14T16:53:21.114Z,10.8
2022-10-14T16:58:22.998Z,10.2
2022-10-14T17:03:25.206Z,10.9
2022-10-14T17:08:27.208Z,10.1
2022-10-14T17:13:29.477Z,10.6
2022-10-14T17:18:35.635Z,10.8
2022-10-14T17:23:38.096Z,10.7
2022-10-14T17:28:40.067Z,10.5
2022-10-14T17:33:42.460Z,10.5
2022-10-14T17:38:44.835Z,9.5
2022-10-14T17:43:46.995Z,9.7
2022-10-14T17:48:49.202Z,9.9
2022-10-14T17:53:51.238Z,9.6
2022-10-14T17:58:53.439Z,10.4
2022-10-14T18:03:55.987Z,11.2
2022-10-14T18:08:58.240Z,10.6
2022-10-14T18:14:00.141Z,10.8
2022-10-14T18:19:02.148Z,10.5
2022-10-14T18:24:06.354Z,11.1
2022-10-14T18:29:08.038Z,12.4
2022-10-14T18:34:10.216Z,11.9
2022-10-14T18:39:12.186Z,11.3
2022-10-14T18:44:14.418Z,11.5
2022-10-14T18:49:16.520Z,11.8
2022-10-14T18:54:21.295Z,11.8
2022-10-14T18:59:23.857Z,11.8
2022-10-14T19:04:26.166Z,12.3
2022-10-14T19:09:28.214Z,12.8
2022-10-14T19:14:30.277Z,13.1
2022-10-14T19:19:32.182Z,13.1
2022-10-14T19:24:34.459Z,13.6
2022-10-14T19:29:37.516Z,13.8
2022-10-14T19:34:47.134Z,14.2
2022-10-14T19:39:49.506Z,14.2
2022-10-14T19:44:51.413Z,14.8
2022-10-14T19:49:53.328Z,15
2022-10-14T19:54:55.586Z,15.4
2022-10-14T19:59:57.730Z,14
2022-10-14T20:04:59.803Z,14.5
2022-10-14T20:10:04.013Z,14.5
2022-10-14T20:15:06.343Z,13.8
2022-10-14T20:20:09.962Z,12.9
2022-10-14T20:25:12.500Z,13.2
2022-10-14T20:30:14.471Z,13.9
2022-10-14T20:35:16.730Z,13.6
2022-10-14T20:40:19.064Z,13.1
2022-10-14T20:45:21.055Z,13.6
2022-10-14T20:50:23.128Z,14.5
2022-10-14T20:55:25.308Z,13.4
2022-10-14T21:00:27.871Z,14.1
2022-10-14T21:05:30.119Z,13.6
2022-10-14T21:10:31.991Z,19
2022-10-14T21:15:34.575Z,15.3
2022-10-14T21:20:36.775Z,15.3
2022-10-14T21:25:38.742Z,16.3
2022-10-14T21:30:40.918Z,16.6
2022-10-14T21:35:42.893Z,16.8
2022-10-14T21:40:44.770Z,17.9
2022-10-14T21:45:47.096Z,17.3
2022-10-14T21:50:49.226Z,18.1
2022-10-14T21:55:51.213Z,18.2
2022-10-14T22:00:53.574Z,18.2
2022-10-14T22:05:56.442Z,18.8
2022-10-14T22:10:58.741Z,18.8
2022-10-14T22:16:00.951Z,18.8
2022-10-14T22:21:03.034Z,18.5
2022-10-14T22:26:05.108Z,21
2022-10-14T22:31:07.380Z,18.3
2022-10-14T22:36:09.471Z,19.4
2022-10-14T22:41:11.414Z,18.9
2022-10-14T22:46:13.742Z,19.6
2022-10-14T22:51:15.868Z,20.1
2022-10-14T22:56:18.163Z,21.1
2022-10-14T23:01:20.260Z,20.6
2022-10-14T23:06:22.882Z,20.1
2022-10-14T23:11:24.843Z,20.3
2022-10-14T23:16:27.071Z,21
2022-10-14T23:21:29.201Z,20.8
2022-10-14T23:26:31.179Z,20.7
2022-10-14T23:31:33.146Z,20.4
2022-10-14T23:36:35.379Z,21.1
2022-10-14T23:41:37.400Z,20.1
2022-10-14T23:46:39.356Z,20.6
2022-10-14T23:51:41.589Z,20.4
2022-10-14T23:56:43.460Z,19.6
